DGAAGOOY

Guest
Details From DGAA - Accra_Kotoka_Intl
To GOOY - Dakar Leopold Sedar Senghor Intl
Flight Number -
Tags generated
Created
Modified
Stats Distance 1,209 nm / 2,238 km
Max Altitude 35,000 ft / 10,668 m
Waypoints 17
Social Downloads 1
Likes 0
Share VATSIM

Download

Looking for another format? Having issues loading an existing format? Contact us
Advertisement - Login to hide

Notes

Basic altitude profile: - Ascent Rate: 2500ft/min - Ascent Speed: 250kts - Cruise Altitude: 35000ft - Cruise Speed: 420kts - Descent Rate: 1500ft/min - Descent Speed: 250kts Options: - Use NATs: yes - Use PACOTS: yes - Use low airways: yes - Use high airways: yes

Route

DGAA TEMBI UB600 AFO B600F AD UR979 BUNAP J579 KOLIP UR979 YF GOOY

ID Type Via Altitude (ft/m) Position (lat/lon) Dist (leg/tot) Name
O DGAA APT - 0 / 0 5.60258 / -0.16760 - / 0 nm Accra_Kotoka_Intl
TEMBI FIX - 32,800 / 9,997 5.48389 / -1.70111 91 / 91 nm
AFO NDB UB600 (AWY-HI) 35,000 / 10,668 5.41114 / -2.91647 72 / 164 nm AFIENOU NDB
AD VOR B600F (AWY-LO) 35,000 / 10,668 5.27719 / -3.91931 60 / 225 nm ABIDJAN VOR-DME
POKSO FIX UR979 (AWY-HI) 35,000 / 10,668 6.75639 / -5.94750 150 / 375 nm
ERMIT FIX UR979 (AWY-HI) 35,000 / 10,668 8.36667 / -8.28333 169 / 544 nm
NANAN FIX UR979 (AWY-HI) 35,000 / 10,668 9.05000 / -9.28333 72 / 617 nm
ARBAL FIX UR979 (AWY-HI) 35,000 / 10,668 10.10000 / -10.71667 105 / 722 nm
BUNAP FIX UR979 (AWY-HI) 35,000 / 10,668 10.25000 / -11.00000 19 / 741 nm
KOLIP FIX J579 (AWY-LO) 35,000 / 10,668 10.66667 / -11.55000 41 / 782 nm
LUGMI FIX UR979 (AWY-HI) 35,000 / 10,668 11.25000 / -12.36667 59 / 842 nm
NASLO FIX UR979 (AWY-HI) 35,000 / 10,668 11.78333 / -13.15000 56 / 898 nm
BADIA FIX UR979 (AWY-HI) 35,000 / 10,668 12.26667 / -13.76667 46 / 944 nm
KOMAB FIX UR979 (AWY-HI) 35,000 / 10,668 12.74667 / -14.46722 50 / 995 nm
ERIDI FIX UR979 (AWY-HI) 35,000 / 10,668 13.19333 / -15.13028 47 / 1042 nm
YF VOR UR979 (AWY-HI) 200 / 61 14.74483 / -17.47478 165 / 1207 nm DAKAR VOR-DME
O GOOY APT - 0 / 0 14.73971 / -17.49023 0 / 1208 nm Dakar Leopold Sedar Senghor Intl

Altitude Profile

Advertisement - Login to hide

Weather


0- 5 10 15 20 25 30 35+ Temperature / °C

Clouds and Precipitation
Forecast for 2018-10-17 06:00 UTC. Updated 3 hours ago

Ground ~20,000 ft ~40,000 ft Winds

DGAA

Details ICAO DGAA (ACC)
Name Accra Kotoka Intl
Region Ghana
Timezone Africa/Accra (UTC+0.0)
Stats Elevation 204 ft / 62 m (AMSL)
Location 5.604660° -0.167449°
Runways 1
Magnetic Variation 3.331° W

METAR

DGAA 170600Z 31004KT 290V040 CAVOK 25/24 Q1012 NOSIG

Decode

TAF

TAF DGAA 170500Z 1706/1812 26008KT 9999 BKN012 PROB30 1706/1709 7000 -RA BECMG 1711/1713 18015KT BKN028 PROB30 TEMPO 1715/1720 TS FEW028CB BECMG 1721/1723 BKN010

Decode

Departure Runways

ID Width Length Bearing (true/mag) Surface Threshold Overrun Markings Lighting
03 200 ft / 61 m 11,772 ft / 3,588 m 22.24° / 25.57° ASPHALT 354 ft / 108 m 0 ft / 0 m APP CENTERLINE EDGE THRESHOLD MALS
21 200 ft / 61 m 11,772 ft / 3,588 m 202.24° / 205.57° ASPHALT 1,542 ft / 470 m 0 ft / 0 m PREC-APP CENTERLINE EDGE THRESHOLD ALSF-I TDZ

GOOY

Details ICAO GOOY (DKR)
Name Dakar - Leopold Sedar Senghor Intl
Region Senegal
Timezone Africa/Dakar (UTC+0.0)
Stats Elevation 84 ft / 26 m (AMSL)
Location 14.740100° -17.490400°
Runways 2
Magnetic Variation 7.252° W

METAR

GOOY 170600Z 36010KT 8000 BKN013 27/26 Q1013

Decode

TAF

TAF GOOY 170530Z 1706/1812 36010KT 9999 SCT013= TAF GOBD 170530Z 1706/1812 35009KT 9999 SCT013

Decode

Destination Runways

ID Width Length Bearing (true/mag) Surface Threshold Overrun Markings Lighting
03 98 ft / 30 m 4,916 ft / 1,498 m 22.33° / 29.58° ASPHALT 0 ft / 0 m 98 ft / 30 m APP
18 148 ft / 45 m 11,483 ft / 3,500 m 172.61° / 179.86° ASPHALT 525 ft / 160 m 220 ft / 67 m APP EDGE THRESHOLD
21 98 ft / 30 m 4,916 ft / 1,498 m 202.33° / 209.58° ASPHALT 0 ft / 0 m 1,591 ft / 485 m APP
36 148 ft / 45 m 11,483 ft / 3,500 m 352.61° / 359.86° ASPHALT 0 ft / 0 m 213 ft / 65 m PREC-APP EDGE THRESHOLD ALSF-I

Approach Navaids

Runway Type Ident Frequency Range Bearing (true/mag) Slope Elevation
36 DME YF 110.30 MHz 18 nm / 33 km - - 73 ft / 22 m (AMSL)
36 LOC-ILS YF 110.30 MHz 18 nm / 33 km 352.33° / 359.58 ° - 65 ft / 20 m (AMSL)
36 GS YF 110.30 MHz 10 nm / 19 km 353.14° / 0.40 ° 3.01° 73 ft / 22 m (AMSL)
36 MM MM - - 352.57° / 359.82 ° - 144 ft / 44 m (AMSL)

Popular Alternatives